sensor_id;sensor_type;location;lat;lon;timestamp;pressure;altitude;pressure_sealevel;temperature;humidity
36254;BME280;22291;52.250;21.228;2023-10-08T00:00:14;99876.19;;;10.80;79.33
36254;BME280;22291;52.250;21.228;2023-10-08T00:03:01;99873.48;;;10.80;79.34
36254;BME280;22291;52.250;21.228;2023-10-08T00:05:34;99871.09;;;10.78;79.50
36254;BME280;22291;52.250;21.228;2023-10-08T00:08:08;99867.50;;;10.80;79.41
36254;BME280;22291;52.250;21.228;2023-10-08T00:10:40;99863.69;;;10.81;79.80
36254;BME280;22291;52.250;21.228;2023-10-08T00:13:15;99860.98;;;10.81;79.59
36254;BME280;22291;52.250;21.228;2023-10-08T00:15:44;99862.88;;;10.81;80.01
36254;BME280;22291;52.250;21.228;2023-10-08T00:18:23;99863.19;;;10.79;80.02
36254;BME280;22291;52.250;21.228;2023-10-08T00:20:53;99867.82;;;10.79;80.02
36254;BME280;22291;52.250;21.228;2023-10-08T00:23:28;99870.63;;;10.76;80.21
36254;BME280;22291;52.250;21.228;2023-10-08T00:25:54;99855.74;;;10.76;80.23
36254;BME280;22291;52.250;21.228;2023-10-08T00:28:24;99855.17;;;10.77;80.24
36254;BME280;22291;52.250;21.228;2023-10-08T00:30:52;99856.53;;;10.77;80.45
36254;BME280;22291;52.250;21.228;2023-10-08T00:33:20;99853.03;;;10.76;80.51
36254;BME280;22291;52.250;21.228;2023-10-08T00:35:46;99844.36;;;10.77;80.33
36254;BME280;22291;52.250;21.228;2023-10-08T00:38:14;99855.42;;;10.78;80.37
36254;BME280;22291;52.250;21.228;2023-10-08T00:40:45;99863.30;;;10.77;80.55
36254;BME280;22291;52.250;21.228;2023-10-08T00:43:37;99873.86;;;10.76;80.65
36254;BME280;22291;52.250;21.228;2023-10-08T00:46:06;99864.39;;;10.76;80.68
36254;BME280;22291;52.250;21.228;2023-10-08T00:48:38;99861.69;;;10.76;80.82
36254;BME280;22291;52.250;21.228;2023-10-08T00:51:08;99854.14;;;10.75;81.04
36254;BME280;22291;52.250;21.228;2023-10-08T00:53:38;99863.86;;;10.76;80.96
36254;BME280;22291;52.250;21.228;2023-10-08T00:56:08;99835.77;;;10.75;81.02
36254;BME280;22291;52.250;21.228;2023-10-08T00:58:43;99846.59;;;10.75;81.26
36254;BME280;22291;52.250;21.228;2023-10-08T01:01:17;99843.42;;;10.73;81.36
36254;BME280;22291;52.250;21.228;2023-10-08T01:03:47;99842.60;;;10.72;81.29
36254;BME280;22291;52.250;21.228;2023-10-08T01:06:17;99848.02;;;10.72;81.53
36254;BME280;22291;52.250;21.228;2023-10-08T01:08:49;99858.84;;;10.72;81.56
36254;BME280;22291;52.250;21.228;2023-10-08T01:11:23;99852.39;;;10.71;81.73
36254;BME280;22291;52.250;21.228;2023-10-08T01:13:59;99847.55;;;10.70;81.73
36254;BME280;22291;52.250;21.228;2023-10-08T01:16:27;99839.18;;;10.69;81.63
36254;BME280;22291;52.250;21.228;2023-10-08T01:18:53;99855.19;;;10.68;81.89
36254;BME280;22291;52.250;21.228;2023-10-08T01:21:21;99859.81;;;10.68;81.89
36254;BME280;22291;52.250;21.228;2023-10-08T01:24:03;99838.71;;;10.67;82.14
36254;BME280;22291;52.250;21.228;2023-10-08T01:26:36;99826.08;;;10.65;82.10
36254;BME280;22291;52.250;21.228;2023-10-08T01:29:10;99838.00;;;10.64;82.12
36254;BME280;22291;52.250;21.228;2023-10-08T01:31:49;99847.24;;;10.63;82.24
36254;BME280;22291;52.250;21.228;2023-10-08T01:34:20;99843.50;;;10.61;82.33
36254;BME280;22291;52.250;21.228;2023-10-08T01:36:48;99830.05;;;10.59;82.47
36254;BME280;22291;52.250;21.228;2023-10-08T01:39:14;99837.16;;;10.57;82.37
36254;BME280;22291;52.250;21.228;2023-10-08T01:41:44;99826.34;;;10.57;82.41
36254;BME280;22291;52.250;21.228;2023-10-08T01:44:14;99828.01;;;10.56;82.45
36254;BME280;22291;52.250;21.228;2023-10-08T01:46:40;99834.20;;;10.56;82.48
36254;BME280;22291;52.250;21.228;2023-10-08T01:49:08;99844.45;;;10.57;82.58
36254;BME280;22291;52.250;21.228;2023-10-08T01:51:36;99844.45;;;10.57;82.79
36254;BME280;22291;52.250;21.228;2023-10-08T01:54:07;99849.08;;;10.56;83.01
36254;BME280;22291;52.250;21.228;2023-10-08T01:56:38;99859.11;;;10.56;83.11
36254;BME280;22291;52.250;21.228;2023-10-08T01:59:13;99865.87;;;10.56;83.21
36254;BME280;22291;52.250;21.228;2023-10-08T02:01:44;99887.50;;;10.56;83.14
36254;BME280;22291;52.250;21.228;2023-10-08T02:04:14;99887.50;;;10.56;83.35
36254;BME280;22291;52.250;21.228;2023-10-08T02:06:42;99880.24;;;10.54;83.28
36254;BME280;22291;52.250;21.228;2023-10-08T02:09:10;99870.71;;;10.56;83.21
36254;BME280;22291;52.250;21.228;2023-10-08T02:11:47;99872.63;;;10.56;83.27
36254;BME280;22291;52.250;21.228;2023-10-08T02:14:21;99865.37;;;10.54;83.20
36254;BME280;22291;52.250;21.228;2023-10-08T02:16:49;99866.72;;;10.54;83.28
36254;BME280;22291;52.250;21.228;2023-10-08T02:19:17;99877.31;;;10.53;83.23
36254;BME280;22291;52.250;21.228;2023-10-08T02:21:48;99864.11;;;10.51;83.27
36254;BME280;22291;52.250;21.228;2023-10-08T02:24:14;99880.91;;;10.51;83.24
36254;BME280;22291;52.250;21.228;2023-10-08T02:26:41;99882.79;;;10.50;83.23
36254;BME280;22291;52.250;21.228;2023-10-08T02:29:11;99873.11;;;10.49;83.29
36254;BME280;22291;52.250;21.228;2023-10-08T02:31:41;99874.45;;;10.49;83.27
36254;BME280;22291;52.250;21.228;2023-10-08T02:34:11;99880.97;;;10.48;83.13
36254;BME280;22291;52.250;21.228;2023-10-08T02:36:41;99888.77;;;10.50;83.20
36254;BME280;22291;52.250;21.228;2023-10-08T02:39:09;99900.68;;;10.49;83.15
36254;BME280;22291;52.250;21.228;2023-10-08T02:41:44;99908.01;;;10.48;83.08
36254;BME280;22291;52.250;21.228;2023-10-08T02:44:17;99909.61;;;10.49;83.15
36254;BME280;22291;52.250;21.228;2023-10-08T02:46:48;99918.03;;;10.48;83.08
36254;BME280;22291;52.250;21.228;2023-10-08T02:49:21;99932.09;;;10.47;83.06
36254;BME280;22291;52.250;21.228;2023-10-08T02:51:54;99925.67;;;10.45;82.94
36254;BME280;22291;52.250;21.228;2023-10-08T02:54:23;99920.02;;;10.44;82.72
36254;BME280;22291;52.250;21.228;2023-10-08T02:56:53;99924.95;;;10.42;82.56
36254;BME280;22291;52.250;21.228;2023-10-08T02:59:32;99930.36;;;10.42;82.52
36254;BME280;22291;52.250;21.228;2023-10-08T03:02:14;99937.18;;;10.40;82.36
36254;BME280;22291;52.250;21.228;2023-10-08T03:04:45;99925.89;;;10.38;82.26
36254;BME280;22291;52.250;21.228;2023-10-08T03:07:19;99929.69;;;10.37;82.05
36254;BME280;22291;52.250;21.228;2023-10-08T03:09:49;99931.92;;;10.35;81.89
36254;BME280;22291;52.250;21.228;2023-10-08T03:12:35;99931.20;;;10.32;81.69
36254;BME280;22291;52.250;21.228;2023-10-08T03:15:09;99918.53;;;10.29;81.57
36254;BME280;22291;52.250;21.228;2023-10-08T03:17:43;99928.55;;;10.29;81.40
36254;BME280;22291;52.250;21.228;2023-10-08T03:20:19;99936.72;;;10.26;81.08
36254;BME280;22291;52.250;21.228;2023-10-08T03:23:07;99943.83;;;10.25;80.96
36254;BME280;22291;52.250;21.228;2023-10-08T03:25:57;99941.18;;;10.22;80.54
36254;BME280;22291;52.250;21.228;2023-10-08T03:28:31;99943.94;;;10.20;80.22
36254;BME280;22291;52.250;21.228;2023-10-08T03:30:59;99941.89;;;10.17;79.98
36254;BME280;22291;52.250;21.228;2023-10-08T03:33:37;99941.73;;;10.13;79.45
36254;BME280;22291;52.250;21.228;2023-10-08T03:36:09;99954.82;;;10.08;79.01
36254;BME280;22291;52.250;21.228;2023-10-08T03:38:50;99962.77;;;10.05;78.94
36254;BME280;22291;52.250;21.228;2023-10-08T03:41:23;99962.51;;;10.04;78.71
36254;BME280;22291;52.250;21.228;2023-10-08T03:43:57;99974.75;;;10.01;78.29
36254;BME280;22291;52.250;21.228;2023-10-08T03:46:32;99967.02;;;9.97;78.03
36254;BME280;22291;52.250;21.228;2023-10-08T03:49:11;99969.49;;;9.96;77.79
36254;BME280;22291;52.250;21.228;2023-10-08T03:51:50;99987.89;;;9.94;77.47
36254;BME280;22291;52.250;21.228;2023-10-08T03:54:23;99990.12;;;9.92;77.00
36254;BME280;22291;52.250;21.228;2023-10-08T03:57:03;99999.09;;;9.90;76.86
36254;BME280;22291;52.250;21.228;2023-10-08T03:59:35;100000.50;;;9.87;76.65
36254;BME280;22291;52.250;21.228;2023-10-08T04:02:03;100004.07;;;9.85;76.53
36254;BME280;22291;52.250;21.228;2023-10-08T04:04:44;100010.04;;;9.85;76.31
36254;BME280;22291;52.250;21.228;2023-10-08T04:07:20;100018.84;;;9.79;75.72
36254;BME280;22291;52.250;21.228;2023-10-08T04:10:00;100017.54;;;9.77;75.53
36254;BME280;22291;52.250;21.228;2023-10-08T04:12:37;100021.41;;;9.73;75.38
36254;BME280;22291;52.250;21.228;2023-10-08T04:15:14;100025.55;;;9.70;75.21
36254;BME280;22291;52.250;21.228;2023-10-08T04:17:44;100019.72;;;9.66;75.07
36254;BME280;22291;52.250;21.228;2023-10-08T04:20:15;100028.17;;;9.62;74.98
36254;BME280;22291;52.250;21.228;2023-10-08T04:23:09;100036.09;;;9.58;74.70
36254;BME280;22291;52.250;21.228;2023-10-08T04:25:42;100038.92;;;9.53;74.68
36254;BME280;22291;52.250;21.228;2023-10-08T04:28:12;100051.45;;;9.49;74.54
36254;BME280;22291;52.250;21.228;2023-10-08T04:30:44;100055.55;;;9.46;74.61
36254;BME280;22291;52.250;21.228;2023-10-08T04:33:13;100062.30;;;9.46;74.56
36254;BME280;22291;52.250;21.228;2023-10-08T04:35:44;100063.95;;;9.45;74.36
36254;BME280;22291;52.250;21.228;2023-10-08T04:38:23;100073.22;;;9.41;73.94
36254;BME280;22291;52.250;21.228;2023-10-08T04:40:58;100066.06;;;9.37;73.81
36254;BME280;22291;52.250;21.228;2023-10-08T04:43:26;100077.47;;;9.33;73.85
36254;BME280;22291;52.250;21.228;2023-10-08T04:46:02;100076.46;;;9.29;73.69
36254;BME280;22291;52.250;21.228;2023-10-08T04:48:32;100079.23;;;9.27;73.47
36254;BME280;22291;52.250;21.228;2023-10-08T04:51:00;100080.93;;;9.23;73.31
36254;BME280;22291;52.250;21.228;2023-10-08T04:53:33;100085.91;;;9.18;73.19
36254;BME280;22291;52.250;21.228;2023-10-08T04:56:08;100091.13;;;9.14;73.01
36254;BME280;22291;52.250;21.228;2023-10-08T04:58:45;100096.86;;;9.10;73.09
36254;BME280;22291;52.250;21.228;2023-10-08T05:01:17;100094.83;;;9.05;72.88
36254;BME280;22291;52.250;21.228;2023-10-08T05:03:50;100103.27;;;9.01;72.83
36254;BME280;22291;52.250;21.228;2023-10-08T05:06:28;100098.80;;;8.96;72.80
36254;BME280;22291;52.250;21.228;2023-10-08T05:11:40;100105.77;;;8.86;72.63
36254;BME280;22291;52.250;21.228;2023-10-08T05:14:23;100113.14;;;8.80;72.53
36254;BME280;22291;52.250;21.228;2023-10-08T05:17:03;100115.41;;;8.75;72.60
36254;BME280;22291;52.250;21.228;2023-10-08T05:19:39;100119.79;;;8.71;72.63
36254;BME280;22291;52.250;21.228;2023-10-08T05:22:16;100124.98;;;8.68;72.51
36254;BME280;22291;52.250;21.228;2023-10-08T05:24:46;100123.51;;;8.62;72.49
36254;BME280;22291;52.250;21.228;2023-10-08T05:27:41;100133.54;;;8.58;72.46
36254;BME280;22291;52.250;21.228;2023-10-08T05:30:20;100141.43;;;8.55;72.46
36254;BME280;22291;52.250;21.228;2023-10-08T05:32:58;100144.95;;;8.53;72.52
36254;BME280;22291;52.250;21.228;2023-10-08T05:35:30;100147.15;;;8.51;72.53
36254;BME280;22291;52.250;21.228;2023-10-08T05:38:00;100151.75;;;8.50;72.53
36254;BME280;22291;52.250;21.228;2023-10-08T05:40:28;100156.59;;;8.51;72.58
36254;BME280;22291;52.250;21.228;2023-10-08T05:43:02;100162.04;;;8.48;72.48
36254;BME280;22291;52.250;21.228;2023-10-08T05:45:32;100170.13;;;8.48;72.50
36254;BME280;22291;52.250;21.228;2023-10-08T05:48:00;100170.42;;;8.47;72.52
36254;BME280;22291;52.250;21.228;2023-10-08T05:50:34;100180.64;;;8.47;72.51
36254;BME280;22291;52.250;21.228;2023-10-08T05:53:10;100188.99;;;8.48;72.53
36254;BME280;22291;52.250;21.228;2023-10-08T05:55:49;100190.58;;;8.49;72.60
36254;BME280;22291;52.250;21.228;2023-10-08T05:58:17;100198.13;;;8.50;72.54
36254;BME280;22291;52.250;21.228;2023-10-08T06:00:48;100207.77;;;8.53;72.73
36254;BME280;22291;52.250;21.228;2023-10-08T06:03:33;100209.06;;;8.56;72.42
36254;BME280;22291;52.250;21.228;2023-10-08T06:06:09;100208.47;;;8.59;72.17
36254;BME280;22291;52.250;21.228;2023-10-08T06:08:41;100217.05;;;8.61;71.97
36254;BME280;22291;52.250;21.228;2023-10-08T06:11:19;100226.69;;;8.65;71.99
36254;BME280;22291;52.250;21.228;2023-10-08T06:14:07;100230.41;;;8.69;71.94
36254;BME280;22291;52.250;21.228;2023-10-08T06:16:46;100222.76;;;8.73;71.77
36254;BME280;22291;52.250;21.228;2023-10-08T06:19:14;100232.06;;;8.81;71.72
36254;BME280;22291;52.250;21.228;2023-10-08T06:21:42;100239.67;;;8.93;71.81
36254;BME280;22291;52.250;21.228;2023-10-08T06:24:12;100238.59;;;9.08;71.86
36254;BME280;22291;52.250;21.228;2023-10-08T06:26:40;100254.67;;;9.27;71.89
36254;BME280;22291;52.250;21.228;2023-10-08T06:29:10;100261.48;;;9.49;71.50
36254;BME280;22291;52.250;21.228;2023-10-08T06:31:47;100262.96;;;9.69;71.40
36254;BME280;22291;52.250;21.228;2023-10-08T06:34:18;100266.19;;;9.94;70.95
36254;BME280;22291;52.250;21.228;2023-10-08T06:36:52;100267.50;;;10.19;70.37
36254;BME280;22291;52.250;21.228;2023-10-08T06:39:22;100275.97;;;10.40;70.31
36254;BME280;22291;52.250;21.228;2023-10-08T06:41:55;100287.98;;;10.68;69.68
36254;BME280;22291;52.250;21.228;2023-10-08T06:44:23;100281.00;;;10.87;67.62
36254;BME280;22291;52.250;21.228;2023-10-08T06:46:50;100286.76;;;10.94;67.18
36254;BME280;22291;52.250;21.228;2023-10-08T06:49:20;100289.00;;;11.12;67.30
36254;BME280;22291;52.250;21.228;2023-10-08T06:51:52;100298.48;;;11.32;66.72
36254;BME280;22291;52.250;21.228;2023-10-08T06:54:19;100305.20;;;11.52;66.17
36254;BME280;22291;52.250;21.228;2023-10-08T06:56:46;100308.53;;;11.78;65.24
36254;BME280;22291;52.250;21.228;2023-10-08T06:59:14;100317.20;;;11.98;64.11
36254;BME280;22291;52.250;21.228;2023-10-08T07:01:42;100308.19;;;12.17;62.83
36254;BME280;22291;52.250;21.228;2023-10-08T07:04:14;100323.50;;;12.39;62.64
36254;BME280;22291;52.250;21.228;2023-10-08T07:06:42;100313.61;;;12.52;60.72
36254;BME280;22291;52.250;21.228;2023-10-08T07:09:11;100325.56;;;12.68;61.49
36254;BME280;22291;52.250;21.228;2023-10-08T07:11:52;100343.04;;;12.97;61.28
36254;BME280;22291;52.250;21.228;2023-10-08T07:14:26;100344.16;;;13.29;60.38
36254;BME280;22291;52.250;21.228;2023-10-08T07:16:57;100336.80;;;13.53;58.42
36254;BME280;22291;52.250;21.228;2023-10-08T07:19:27;100339.84;;;13.66;57.67
36254;BME280;22291;52.250;21.228;2023-10-08T07:22:07;100348.68;;;13.84;56.74
36254;BME280;22291;52.250;21.228;2023-10-08T07:24:48;100343.72;;;14.22;55.66
36254;BME280;22291;52.250;21.228;2023-10-08T07:27:22;100345.32;;;14.71;55.60
36254;BME280;22291;52.250;21.228;2023-10-08T07:29:52;100358.34;;;15.11;55.16
36254;BME280;22291;52.250;21.228;2023-10-08T07:32:20;100362.37;;;15.45;54.75
36254;BME280;22291;52.250;21.228;2023-10-08T07:34:48;100367.06;;;15.75;53.68
36254;BME280;22291;52.250;21.228;2023-10-08T07:37:16;100359.31;;;15.96;51.79
36254;BME280;22291;52.250;21.228;2023-10-08T07:39:44;100368.93;;;16.05;50.03
36254;BME280;22291;52.250;21.228;2023-10-08T07:42:13;100385.77;;;16.08;51.16
36254;BME280;22291;52.250;21.228;2023-10-08T07:44:41;100395.83;;;16.38;50.69
36254;BME280;22291;52.250;21.228;2023-10-08T07:47:09;100382.76;;;16.66;49.55
36254;BME280;22291;52.250;21.228;2023-10-08T07:49:37;100383.50;;;16.85;49.25
36254;BME280;22291;52.250;21.228;2023-10-08T07:52:10;100389.56;;;17.00;48.26
36254;BME280;22291;52.250;21.228;2023-10-08T07:54:40;100383.09;;;17.14;45.83
36254;BME280;22291;52.250;21.228;2023-10-08T07:57:06;100398.53;;;17.23;47.84
36254;BME280;22291;52.250;21.228;2023-10-08T07:59:42;100398.09;;;17.36;46.51
36254;BME280;22291;52.250;21.228;2023-10-08T08:02:14;100400.53;;;17.48;46.17
36254;BME280;22291;52.250;21.228;2023-10-08T08:04:45;100390.66;;;17.59;44.97
36254;BME280;22291;52.250;21.228;2023-10-08T08:07:21;100396.30;;;17.66;44.66
36254;BME280;22291;52.250;21.228;2023-10-08T08:09:52;100403.25;;;17.80;45.14
36254;BME280;22291;52.250;21.228;2023-10-08T08:12:29;100402.94;;;17.91;44.31
36254;BME280;22291;52.250;21.228;2023-10-08T08:14:57;100414.73;;;18.11;44.76
36254;BME280;22291;52.250;21.228;2023-10-08T08:17:24;100407.30;;;18.37;44.17
36254;BME280;22291;52.250;21.228;2023-10-08T08:19:52;100410.03;;;18.57;43.31
36254;BME280;22291;52.250;21.228;2023-10-08T08:22:20;100419.27;;;18.68;43.17
36254;BME280;22291;52.250;21.228;2023-10-08T08:24:48;100423.03;;;18.89;42.62
36254;BME280;22291;52.250;21.228;2023-10-08T08:27:19;100429.78;;;19.05;41.61
36254;BME280;22291;52.250;21.228;2023-10-08T08:29:54;100432.16;;;19.07;41.13
36254;BME280;22291;52.250;21.228;2023-10-08T08:32:22;100444.67;;;19.27;41.41
36254;BME280;22291;52.250;21.228;2023-10-08T08:34:49;100438.51;;;19.44;40.69
36254;BME280;22291;52.250;21.228;2023-10-08T08:37:17;100432.58;;;19.65;41.10
36254;BME280;22291;52.250;21.228;2023-10-08T08:39:43;100429.01;;;19.84;39.60
36254;BME280;22291;52.250;21.228;2023-10-08T08:42:11;100431.08;;;19.90;39.33
36254;BME280;22291;52.250;21.228;2023-10-08T08:44:41;100432.95;;;19.86;38.92
36254;BME280;22291;52.250;21.228;2023-10-08T08:47:13;100436.03;;;19.94;38.55
36254;BME280;22291;52.250;21.228;2023-10-08T08:49:45;100441.20;;;20.00;38.30
36254;BME280;22291;52.250;21.228;2023-10-08T08:52:13;100446.38;;;20.18;38.64
36254;BME280;22291;52.250;21.228;2023-10-08T08:54:41;100447.12;;;20.59;38.80
36254;BME280;22291;52.250;21.228;2023-10-08T08:57:11;100436.77;;;20.96;38.18
36254;BME280;22291;52.250;21.228;2023-10-08T08:59:44;100449.66;;;21.25;37.78
36254;BME280;22291;52.250;21.228;2023-10-08T09:02:12;100447.98;;;21.55;36.39
36254;BME280;22291;52.250;21.228;2023-10-08T09:04:41;100456.02;;;21.54;35.85
36254;BME280;22291;52.250;21.228;2023-10-08T09:07:07;100463.02;;;21.64;35.76
36254;BME280;22291;52.250;21.228;2023-10-08T09:09:35;100465.30;;;21.79;35.74
36254;BME280;22291;52.250;21.228;2023-10-08T09:12:10;100454.17;;;21.93;35.51
36254;BME280;22291;52.250;21.228;2023-10-08T09:14:36;100457.37;;;21.98;34.35
36254;BME280;22291;52.250;21.228;2023-10-08T09:17:07;100469.77;;;21.98;34.33
36254;BME280;22291;52.250;21.228;2023-10-08T09:19:37;100470.61;;;22.10;34.31
36254;BME280;22291;52.250;21.228;2023-10-08T09:22:10;100468.02;;;22.28;34.15
36254;BME280;22291;52.250;21.228;2023-10-08T09:24:36;100461.02;;;22.45;33.03
36254;BME280;22291;52.250;21.228;2023-10-08T09:27:08;100458.30;;;22.52;33.42
36254;BME280;22291;52.250;21.228;2023-10-08T09:29:46;100466.85;;;22.74;33.29
36254;BME280;22291;52.250;21.228;2023-10-08T09:32:15;100466.33;;;22.89;32.84
36254;BME280;22291;52.250;21.228;2023-10-08T09:34:47;100473.11;;;23.06;32.91
36254;BME280;22291;52.250;21.228;2023-10-08T09:37:14;100467.82;;;23.22;32.12
36254;BME280;22291;52.250;21.228;2023-10-08T09:39:42;100480.25;;;23.29;31.57
36254;BME280;22291;52.250;21.228;2023-10-08T09:42:11;100482.83;;;23.49;32.25
36254;BME280;22291;52.250;21.228;2023-10-08T09:44:39;100486.22;;;23.74;31.73
36254;BME280;22291;52.250;21.228;2023-10-08T09:47:07;100485.84;;;23.83;30.76
36254;BME280;22291;52.250;21.228;2023-10-08T09:49:40;100494.30;;;23.66;30.57
36254;BME280;22291;52.250;21.228;2023-10-08T09:52:13;100501.59;;;23.57;29.82
36254;BME280;22291;52.250;21.228;2023-10-08T09:55:00;100492.48;;;23.31;30.54
36254;BME280;22291;52.250;21.228;2023-10-08T09:57:23;100491.88;;;23.32;29.65
36254;BME280;22291;52.250;21.228;2023-10-08T09:59:52;100502.30;;;23.15;30.38
36254;BME280;22291;52.250;21.228;2023-10-08T10:02:20;100498.41;;;23.44;30.50
36254;BME280;22291;52.250;21.228;2023-10-08T10:04:52;100492.48;;;23.31;29.73
36254;BME280;22291;52.250;21.228;2023-10-08T10:07:20;100496.40;;;23.20;30.19
36254;BME280;22291;52.250;21.228;2023-10-08T10:09:51;100504.08;;;23.20;29.76
36254;BME280;22291;52.250;21.228;2023-10-08T10:12:24;100492.64;;;23.18;29.90
36254;BME280;22291;52.250;21.228;2023-10-08T10:14:56;100495.84;;;23.31;29.66
36254;BME280;22291;52.250;21.228;2023-10-08T10:17:25;100510.42;;;23.35;29.63
36254;BME280;22291;52.250;21.228;2023-10-08T10:19:56;100508.84;;;23.38;29.47
36254;BME280;22291;52.250;21.228;2023-10-08T10:22:35;100510.81;;;23.37;28.44
36254;BME280;22291;52.250;21.228;2023-10-08T10:25:02;100505.06;;;23.18;29.05
36254;BME280;22291;52.250;21.228;2023-10-08T10:27:32;100502.76;;;23.49;29.48
36254;BME280;22291;52.250;21.228;2023-10-08T10:30:04;100512.63;;;23.72;29.17
36254;BME280;22291;52.250;21.228;2023-10-08T10:32:38;100503.80;;;23.83;28.80
36254;BME280;22291;52.250;21.228;2023-10-08T10:35:02;100519.79;;;23.94;28.46
36254;BME280;22291;52.250;21.228;2023-10-08T10:37:34;100515.60;;;23.76;27.52
36254;BME280;22291;52.250;21.228;2023-10-08T10:40:09;100502.78;;;23.74;28.19
36254;BME280;22291;52.250;21.228;2023-10-08T10:42:38;100503.78;;;24.12;28.63
36254;BME280;22291;52.250;21.228;2023-10-08T10:45:14;100509.05;;;24.50;28.77
36254;BME280;22291;52.250;21.228;2023-10-08T10:47:44;100500.22;;;24.95;27.92
36254;BME280;22291;52.250;21.228;2023-10-08T10:50:12;100504.52;;;25.07;27.79
36254;BME280;22291;52.250;21.228;2023-10-08T10:52:40;100501.30;;;25.15;26.84
36254;BME280;22291;52.250;21.228;2023-10-08T10:55:20;100494.78;;;25.14;26.65
36254;BME280;22291;52.250;21.228;2023-10-08T10:57:49;100501.78;;;25.00;26.13
36254;BME280;22291;52.250;21.228;2023-10-08T11:00:31;100505.98;;;24.85;26.71
36254;BME280;22291;52.250;21.228;2023-10-08T11:02:59;100524.77;;;24.82;26.11
36254;BME280;22291;52.250;21.228;2023-10-08T11:05:31;100513.19;;;24.47;25.63
36254;BME280;22291;52.250;21.228;2023-10-08T11:08:01;100520.34;;;24.26;25.58
36254;BME280;22291;52.250;21.228;2023-10-08T11:10:32;100514.45;;;23.84;25.63
36254;BME280;22291;52.250;21.228;2023-10-08T11:12:59;100518.75;;;23.75;25.74
36254;BME280;22291;52.250;21.228;2023-10-08T11:15:28;100521.69;;;23.54;26.11
36254;BME280;22291;52.250;21.228;2023-10-08T11:18:13;100511.59;;;23.30;26.33
36254;BME280;22291;52.250;21.228;2023-10-08T11:20:43;100511.75;;;23.17;26.00
36254;BME280;22291;52.250;21.228;2023-10-08T11:26:01;100516.58;;;22.92;26.20
36254;BME280;22291;52.250;21.228;2023-10-08T11:28:35;100522.72;;;23.03;27.19
36254;BME280;22291;52.250;21.228;2023-10-08T11:31:11;100525.97;;;23.19;26.92
36254;BME280;22291;52.250;21.228;2023-10-08T11:33:46;100523.23;;;23.34;26.18
36254;BME280;22291;52.250;21.228;2023-10-08T11:36:24;100511.80;;;23.35;26.02
36254;BME280;22291;52.250;21.228;2023-10-08T11:38:55;100518.75;;;23.53;26.60
36254;BME280;22291;52.250;21.228;2023-10-08T11:41:31;100514.65;;;24.00;26.20
36254;BME280;22291;52.250;21.228;2023-10-08T11:44:19;100524.11;;;23.95;25.77
36254;BME280;22291;52.250;21.228;2023-10-08T11:46:46;100519.19;;;23.98;25.68
36254;BME280;22291;52.250;21.228;2023-10-08T11:49:18;100520.34;;;24.26;25.77
36254;BME280;22291;52.250;21.228;2023-10-08T11:51:47;100522.92;;;24.21;25.44
36254;BME280;22291;52.250;21.228;2023-10-08T11:54:14;100519.98;;;24.06;24.19
36254;BME280;22291;52.250;21.228;2023-10-08T11:56:44;100521.96;;;23.88;24.54
36254;BME280;22291;52.250;21.228;2023-10-08T11:59:10;100519.75;;;23.73;24.06
36254;BME280;22291;52.250;21.228;2023-10-08T12:01:38;100534.72;;;23.64;24.63
36254;BME280;22291;52.250;21.228;2023-10-08T12:04:10;100528.03;;;23.69;24.57
36254;BME280;22291;52.250;21.228;2023-10-08T12:06:40;100534.00;;;23.07;23.94
36254;BME280;22291;52.250;21.228;2023-10-08T12:09:09;100523.38;;;22.74;24.02
36254;BME280;22291;52.250;21.228;2023-10-08T12:11:40;100539.63;;;22.55;24.39
36254;BME280;22291;52.250;21.228;2023-10-08T12:14:06;100545.82;;;21.90;24.28
36254;BME280;22291;52.250;21.228;2023-10-08T12:16:34;100533.29;;;21.75;25.02
36254;BME280;22291;52.250;21.228;2023-10-08T12:19:05;100529.34;;;21.73;24.94
36254;BME280;22291;52.250;21.228;2023-10-08T12:21:34;100526.11;;;21.88;25.29
36254;BME280;22291;52.250;21.228;2023-10-08T12:24:03;100529.53;;;21.74;24.76
36254;BME280;22291;52.250;21.228;2023-10-08T12:26:31;100532.92;;;21.22;25.26
36254;BME280;22291;52.250;21.228;2023-10-08T12:28:57;100535.78;;;21.16;25.59
36254;BME280;22291;52.250;21.228;2023-10-08T12:31:23;100534.66;;;20.87;25.06
36254;BME280;22291;52.250;21.228;2023-10-08T12:33:52;100548.66;;;20.51;24.95
36254;BME280;22291;52.250;21.228;2023-10-08T12:36:27;100547.65;;;20.10;25.21
36254;BME280;22291;52.250;21.228;2023-10-08T12:38:56;100542.94;;;20.10;25.53
36254;BME280;22291;52.250;21.228;2023-10-08T12:41:27;100541.55;;;20.33;25.62
36254;BME280;22291;52.250;21.228;2023-10-08T12:43:55;100547.73;;;20.53;25.28
36254;BME280;22291;52.250;21.228;2023-10-08T12:46:22;100558.41;;;20.59;25.33
36254;BME280;22291;52.250;21.228;2023-10-08T12:48:54;100544.44;;;20.44;25.08
36254;BME280;22291;52.250;21.228;2023-10-08T12:51:23;100556.53;;;20.13;24.71
36254;BME280;22291;52.250;21.228;2023-10-08T12:53:52;100540.25;;;20.01;24.96
36254;BME280;22291;52.250;21.228;2023-10-08T12:56:28;100560.30;;;19.82;24.58
36254;BME280;22291;52.250;21.228;2023-10-08T12:59:00;100550.23;;;19.56;24.80
36254;BME280;22291;52.250;21.228;2023-10-08T13:01:30;100562.56;;;19.76;25.35
36254;BME280;22291;52.250;21.228;2023-10-08T13:03:56;100558.58;;;20.06;25.34
36254;BME280;22291;52.250;21.228;2023-10-08T13:06:28;100561.06;;;20.15;24.76
36254;BME280;22291;52.250;21.228;2023-10-08T13:08:57;100554.82;;;20.05;24.78
36254;BME280;22291;52.250;21.228;2023-10-08T13:11:27;100559.69;;;19.92;24.87
36254;BME280;22291;52.250;21.228;2023-10-08T13:13:57;100569.44;;;19.99;25.12